juin
18

MOTOCROSS MONDIAL MX1 ET MX2 EN ESPAGNE : LES QUALIFICATIONS

Holeshot de Herlings et chute au départ d’Arnaud Tonus..

Chute de Jeffrey Herlings quelques tours plus tard..

Casse mécanique pour Max Anstie à quelques tours de la fin..

MX2 – Qualifying Race – Classification
Pos Nr Rider Nat. Fed. Bike Time laps Diff. First Diff. Prev. Bestlaptime in lap Speed

1 94 Roczen, Ken GER DMSB KTM 24:23.162 14 0:00.000 0:00.000 1:41.522 6 50.354
2 100 Searle, Tommy GBR ACU Kawasaki 24:34.981 14 0:11.819 0:11.819 1:41.430 8 50.399
3 131 Aubin, Nicolas FRA FFM KTM 24:37.451 14 0:14.289 0:02.470 1:42.694 8 49.779
4 25 Coldenhoff, Glenn NED KNMV Yamaha 24:41.944 14 0:18.782 0:04.493 1:44.005 12 49.151
5 84 Herlings, Jeffrey NED KNMV KTM 24:42.200 14 0:19.038 0:00.256 1:41.841 14 50.196
6 21 Paulin, Gautier FRA MCM Yamaha 24:48.108 14 0:24.946 0:05.908 1:42.308 12 49.967
7 338 Osborne, Zachary USA ACU Yamaha 24:49.965 14 0:26.803 0:01.857 1:43.116 8 49.575
8 45 Nicholls, Jake GBR ACU KTM 24:51.242 14 0:28.080 0:01.277 1:43.844 8 49.228
9 151 Kullas, Harri FIN SML Yamaha 24:52.949 14 0:29.787 0:01.707 1:43.337 13 49.469
10 17 Butron Oliva, Antonio Jose ESP RFME KTM 25:08.577 14 0:45.415 0:15.628 1:45.200 8 48.593
11 76 Rauchenecker, Pascal AUT OeAMTC KTM 25:09.392 14 0:46.230 0:00.815 1:44.273 8 49.025
12 7 Tonus, Arnaud SUI FMS Yamaha 25:17.032 14 0:53.870 0:07.640 1:42.773 11 49.741
13 590 Triest, Nick BEL FMB KTM 25:21.626 14 0:58.464 0:04.594 1:45.704 12 48.361
14 34 Roelants, Joel BEL FMB KTM 25:27.711 14 1:04.549 0:06.085 1:44.112 13 49.101
15 685 Lenoir, Steven FRA FFM Yamaha 25:35.625 14 1:12.463 0:07.914 1:46.260 11 48.108
16 170 Leib, Michael USA FSM Husqvarna 25:38.043 14 1:14.881 0:02.418 1:45.721 13 48.354
17 55 Kras, Mike NED KNMV Suzuki 25:42.304 14 1:19.142 0:04.261 1:45.708 14 48.36
18 911 Tixier, Jordi FRA FFM KTM 25:44.119 14 1:20.957 0:01.815 1:46.185 12 48.142
19 77 Lupino, Alessandro ITA FMI Husqvarna 25:44.710 14 1:21.548 0:00.591 1:45.370 11 48.515
20 152 Petrov, Petar BUL BMF Yamaha 25:46.527 14 1:23.365 0:01.817 1:45.171 13 48.607
21 388 Söderberg, Ludvig FIN SML Kawasaki 25:48.736 14 1:25.574 0:02.209 1:46.825 11 47.854
22 12 Zecchina, Simone ITA FMI Suzuki 25:50.103 14 1:26.941 0:01.367 1:45.768 9 48.332
23 128 Monticelli, Ivo ITA FMI Honda 25:57.538 14 1:34.376 0:07.435 1:47.251 6 47.664
24 79 Oldekamp, Lars GER DMSB KTM 25:58.016 14 1:34.854 0:00.478 1:47.821 7 47.412
25 777 Zanoni, Swian BRA FMI Honda 26:09.391 14 1:46.229 0:11.375 1:48.057 8 47.308
26 262 Del Segato, Giacomo ITA FMI KTM 24:29.698 13 1 lap 1 lap 1:47.735 7 47.45
27 495 Plessers, Mathias BEL FMB Honda 24:55.564 13 1 lap 0:25.866 1:51.196 4 45.973
28 202 Larrieu, Loic FRA FFM KTM 24:55.812 13 1 lap 0:00.248 1:45.238 13 48.576
29 550 Mitchell, Sean ZIM ZMSF Honda 25:54.328 13 1 lap 0:58.516 1:52.784 7 45.326
30 430 Charlier, Christophe FRA FFM Yamaha 18:05.926 10 4 laps 3 laps 1:43.468 8 49.407
31 33 Lieber, Julien BEL MUL KTM 24:54.769 10 4 laps 6:48.843 1:46.329 4 48.077
32 20 Svoboda, Bence HUN MAMS KTM 25:02.399 10 4 laps 0:07.630 1:46.470 6 48.014
33 99 Anstie, Max GBR AMA Kawasaki 19:43.860 7 7 laps 3 laps 1:42.672 4 49.79
34 611 Cociu, Mihail MDA FRM Honda 2:25.804 1 13 laps 6 laps 2:04.487 1 41.065

Holeshot de Cairoli et chute de Davide Philippaerts..

Problèmes mécaniques pour De Dycker à 13 min de la fin de manche..

MX1 – Qualifying Race – Classification
Pos Nr Rider Nat. Fed. Bike Time laps Diff. First Diff. Prev. Bestlaptime in lap Speed

1 222 Cairoli, Antonio ITA FMI KTM 23:41.498 14 0:00.000 0:00.000 1:38.907 10 51.685
2 25 Desalle, Clement BEL FMB Suzuki 23:44.004 14 0:02.506 0:02.506 1:39.401 8 51.428
3 2 Nagl, Maximilian GER DMSB KTM 23:55.664 14 0:14.166 0:11.660 1:39.904 10 51.169
4 999 Goncalves, Rui POR FMP Honda 24:04.041 14 0:22.543 0:08.377 1:40.450 5 50.891
5 121 Boog, Xavier FRA FFM Kawasaki 24:09.210 14 0:27.712 0:05.169 1:41.031 8 50.598
6 183 Frossard, Steven FRA FFM Yamaha 24:11.539 14 0:30.041 0:02.329 1:40.623 7 50.803

7 777 Bobryshev, Evgeny RUS MFR Honda 24:13.205 14 0:31.707 0:01.666 1:40.315 6 50.959
8 39 Guarneri, Davide ITA FMI Kawasaki 24:14.763 14 0:33.265 0:01.558 1:40.248 9 50.994
9 11 Ramon, Steve BEL FMB Suzuki 24:17.007 14 0:35.509 0:02.244 1:41.189 9 50.519
10 24 Simpson, Shaun GBR ACU Honda 24:17.801 14 0:36.303 0:00.794 1:41.460 9 50.384
11 10 Boissiere, Anthony FRA FFM Yamaha 24:25.488 14 0:43.990 0:07.687 1:41.911 9 50.161
12 7 Barragan, Jonathan ESP RFME Kawasaki 24:25.905 14 0:44.407 0:00.417 1:41.495 9 50.367
13 6 Leok, Tanel EST EMF TM 24:27.355 14 0:45.857 0:01.450 1:41.766 12 50.233
14 19 Philippaerts, David ITA FMI Yamaha 24:39.646 14 0:58.148 0:12.291 1:41.637 9 50.297
15 115 Campano Jimenez, Carlos ESP RFME Yamaha 24:41.880 14 1:00.382 0:02.234 1:42.807 5 49.724
16 22 Strijbos, Kevin BEL FMB Suzuki 24:42.934 14 1:01.436 0:01.054 1:42.687 5 49.782
17 49 Schmidinger, Günter AUT OeAMTC Honda 24:45.084 14 1:03.586 0:02.150 1:42.366 5 49.938
18 287 Schiffer, Marcus GER DMSB Suzuki 24:45.268 14 1:03.770 0:00.184 1:42.287 8 49.977
19 28 Lozano Rico, Alvaro ESP RFME Yamaha 24:56.342 14 1:14.844 0:11.074 1:42.792 5 49.731
20 26 Delince, Jeremy BEL FMB KTM 25:03.094 14 1:21.596 0:06.752 1:43.492 7 49.395
21 74 Steinbergs, Ivo LAT LAMSF Kawasaki 25:12.724 14 1:31.226 0:09.630 1:44.447 9 48.943
22 95 Augusts, Justs LAT LAMSF Honda 25:39.507 14 1:58.009 0:26.783 1:44.640 7 48.853
23 67 Tiainen, Santtu FIN SML Kawasaki 23:52.234 13 1 lap 1 lap 1:45.971 8 48.24
24 387 Martens, Yentel BEL MUL KTM 23:53.728 13 1 lap 0:01.494 1:46.639 11 47.937
25 41 Smith, Alfie GBR ACU Aprilia 24:18.645 13 1 lap 0:24.917 1:45.801 7 48.317
26 45 Leonce, Loic FRA FFM Aprilia 24:48.238 13 1 lap 0:29.593 1:44.301 7 49.012
27 52 Walkner, Matthias AUT OeAMTC KTM 19:53.953 11 3 laps 2 laps 1:44.146 7 49.085
28 9 de Dycker, Ken BEL FMB Honda 5:39.210 3 11 laps 8 laps 1:43.623 3 49.333
29 13 Monni, Manuel ITA FMI Honda 0:17.667 0 14 laps 3 laps 0:00.000 0 0

A voir aussi :

Le commentaires sont fermés.